sensor_id;sensor_type;location;lat;lon;timestamp;pressure;altitude;pressure_sealevel;temperature;humidity
52777;BME280;38656;54.260;20.822;2023-05-19T00:01:52;102360.16;;;15.44;87.88
52777;BME280;38656;54.260;20.822;2023-05-19T00:04:20;102361.63;;;14.84;89.85
52777;BME280;38656;54.260;20.822;2023-05-19T00:06:49;102357.16;;;15.49;85.49
52777;BME280;38656;54.260;20.822;2023-05-19T00:09:16;102365.44;;;13.98;93.36
52777;BME280;38656;54.260;20.822;2023-05-19T00:11:43;102361.22;;;13.38;96.14
52777;BME280;38656;54.260;20.822;2023-05-19T00:14:09;102361.84;;;14.26;94.01
52777;BME280;38656;54.260;20.822;2023-05-19T00:16:36;102359.38;;;13.81;96.51
52777;BME280;38656;54.260;20.822;2023-05-19T00:19:04;102353.56;;;14.58;93.32
52777;BME280;38656;54.260;20.822;2023-05-19T00:21:31;102355.59;;;15.20;90.07
52777;BME280;38656;54.260;20.822;2023-05-19T00:23:57;102358.06;;;14.30;92.96
52777;BME280;38656;54.260;20.822;2023-05-19T00:26:25;102356.63;;;13.97;94.04
52777;BME280;38656;54.260;20.822;2023-05-19T00:28:52;102354.63;;;14.83;93.40
52777;BME280;38656;54.260;20.822;2023-05-19T00:31:18;102350.16;;;15.48;87.94
52777;BME280;38656;54.260;20.822;2023-05-19T00:33:45;102349.09;;;15.37;86.95
52777;BME280;38656;54.260;20.822;2023-05-19T00:36:11;102348.66;;;14.92;88.48
52777;BME280;38656;54.260;20.822;2023-05-19T00:38:38;102358.88;;;14.58;89.18
52777;BME280;38656;54.260;20.822;2023-05-19T00:41:05;102345.91;;;15.07;89.73
52777;BME280;38656;54.260;20.822;2023-05-19T00:43:32;102352.06;;;15.20;88.56
52777;BME280;38656;54.260;20.822;2023-05-19T00:45:59;102352.59;;;14.86;89.10
52777;BME280;38656;54.260;20.822;2023-05-19T00:48:25;102352.59;;;15.38;88.36
52777;BME280;38656;54.260;20.822;2023-05-19T00:50:57;102348.25;;;15.24;87.03
52777;BME280;38656;54.260;20.822;2023-05-19T00:53:29;102352.41;;;15.28;87.46
52777;BME280;38656;54.260;20.822;2023-05-19T00:55:57;102351.41;;;15.55;85.82
52777;BME280;38656;54.260;20.822;2023-05-19T00:58:24;102355.28;;;15.12;87.21
52777;BME280;38656;54.260;20.822;2023-05-19T01:00:58;102351.22;;;14.26;90.41
52777;BME280;38656;54.260;20.822;2023-05-19T01:03:30;102357.06;;;14.86;89.31
52777;BME280;38656;54.260;20.822;2023-05-19T01:05:56;102358.28;;;14.13;92.28
52777;BME280;38656;54.260;20.822;2023-05-19T01:08:27;102358.53;;;13.81;94.38
52777;BME280;38656;54.260;20.822;2023-05-19T01:10:54;102352.88;;;14.14;93.25
52777;BME280;38656;54.260;20.822;2023-05-19T01:13:20;102352.91;;;14.82;90.23
52777;BME280;38656;54.260;20.822;2023-05-19T01:18:42;102350.13;;;14.96;89.53
52777;BME280;38656;54.260;20.822;2023-05-19T01:29:40;102363.41;;;14.71;89.04
52777;BME280;38656;54.260;20.822;2023-05-19T01:32:07;102359.16;;;14.41;92.58
52777;BME280;38656;54.260;20.822;2023-05-19T01:34:38;102363.78;;;14.24;93.87
52777;BME280;38656;54.260;20.822;2023-05-19T01:37:05;102358.13;;;14.02;94.31
52777;BME280;38656;54.260;20.822;2023-05-19T01:39:32;102353.22;;;14.50;92.58
52777;BME280;38656;54.260;20.822;2023-05-19T01:42:01;102355.94;;;14.36;92.90
52777;BME280;38656;54.260;20.822;2023-05-19T01:44:28;102350.97;;;14.71;90.75
52777;BME280;38656;54.260;20.822;2023-05-19T01:46:56;102352.75;;;14.43;91.75
52777;BME280;38656;54.260;20.822;2023-05-19T01:49:22;102352.03;;;14.68;90.12
52777;BME280;38656;54.260;20.822;2023-05-19T01:51:48;102352.16;;;14.25;94.12
52777;BME280;38656;54.260;20.822;2023-05-19T01:54:15;102347.41;;;14.30;94.88
52777;BME280;38656;54.260;20.822;2023-05-19T01:56:49;102351.81;;;13.75;96.06
52777;BME280;38656;54.260;20.822;2023-05-19T02:02:00;102356.09;;;13.78;96.76
52777;BME280;38656;54.260;20.822;2023-05-19T02:04:48;102356.34;;;14.29;94.95
52777;BME280;38656;54.260;20.822;2023-05-19T02:08:04;102352.81;;;14.02;96.91
52777;BME280;38656;54.260;20.822;2023-05-19T02:10:29;102349.38;;;14.68;94.07
52777;BME280;38656;54.260;20.822;2023-05-19T02:12:59;102350.00;;;13.90;94.86
52777;BME280;38656;54.260;20.822;2023-05-19T02:15:31;102350.31;;;14.13;95.38
52777;BME280;38656;54.260;20.822;2023-05-19T02:18:00;102350.06;;;14.03;96.68
52777;BME280;38656;54.260;20.822;2023-05-19T02:20:30;102355.78;;;14.51;95.31
52777;BME280;38656;54.260;20.822;2023-05-19T02:22:56;102363.09;;;14.75;93.47
52777;BME280;38656;54.260;20.822;2023-05-19T02:25:22;102369.13;;;15.43;89.85
52777;BME280;38656;54.260;20.822;2023-05-19T02:27:50;102354.38;;;16.13;88.06
52777;BME280;38656;54.260;20.822;2023-05-19T02:30:16;102361.69;;;17.06;81.79
52777;BME280;38656;54.260;20.822;2023-05-19T02:32:42;102363.38;;;17.07;79.45
52777;BME280;38656;54.260;20.822;2023-05-19T02:35:12;102363.16;;;17.10;78.73
52777;BME280;38656;54.260;20.822;2023-05-19T02:37:38;102360.25;;;17.13;77.57
52777;BME280;38656;54.260;20.822;2023-05-19T02:40:05;102358.06;;;17.30;76.92
52777;BME280;38656;54.260;20.822;2023-05-19T02:42:31;102357.28;;;16.94;78.09
52777;BME280;38656;54.260;20.822;2023-05-19T02:44:58;102352.91;;;16.93;78.52
52777;BME280;38656;54.260;20.822;2023-05-19T02:47:25;102358.41;;;16.78;80.45
52777;BME280;38656;54.260;20.822;2023-05-19T02:49:51;102359.72;;;16.97;78.58
52777;BME280;38656;54.260;20.822;2023-05-19T02:52:17;102363.31;;;15.88;81.75
52777;BME280;38656;54.260;20.822;2023-05-19T02:54:43;102360.16;;;15.57;85.49
52777;BME280;38656;54.260;20.822;2023-05-19T02:57:09;102356.50;;;15.58;86.08
52777;BME280;38656;54.260;20.822;2023-05-19T02:59:36;102356.94;;;15.78;87.91
52777;BME280;38656;54.260;20.822;2023-05-19T03:02:02;102360.38;;;15.54;86.31
52777;BME280;38656;54.260;20.822;2023-05-19T03:04:28;102356.72;;;15.55;87.48
52777;BME280;38656;54.260;20.822;2023-05-19T03:06:55;102362.72;;;15.46;89.14
52777;BME280;38656;54.260;20.822;2023-05-19T03:09:22;102369.28;;;16.64;83.15
52777;BME280;38656;54.260;20.822;2023-05-19T03:11:48;102366.31;;;16.44;83.27
52777;BME280;38656;54.260;20.822;2023-05-19T03:14:14;102364.78;;;16.29;83.93
52777;BME280;38656;54.260;20.822;2023-05-19T03:16:41;102375.66;;;16.50;82.69
52777;BME280;38656;54.260;20.822;2023-05-19T03:19:08;102368.13;;;17.26;78.72
52777;BME280;38656;54.260;20.822;2023-05-19T03:21:35;102368.72;;;16.72;80.29
52777;BME280;38656;54.260;20.822;2023-05-19T03:24:01;102368.56;;;16.62;81.20
52777;BME280;38656;54.260;20.822;2023-05-19T03:26:27;102364.84;;;16.76;80.27
52777;BME280;38656;54.260;20.822;2023-05-19T03:28:57;102370.69;;;16.45;83.37
52777;BME280;38656;54.260;20.822;2023-05-19T03:31:23;102371.19;;;16.51;83.01
52777;BME280;38656;54.260;20.822;2023-05-19T03:33:49;102364.69;;;16.18;83.14
52777;BME280;38656;54.260;20.822;2023-05-19T03:36:15;102367.00;;;16.35;83.43
52777;BME280;38656;54.260;20.822;2023-05-19T03:38:42;102368.50;;;17.44;79.19
52777;BME280;38656;54.260;20.822;2023-05-19T03:43:37;102368.13;;;17.49;78.08
52777;BME280;38656;54.260;20.822;2023-05-19T03:46:03;102369.59;;;17.53;78.49
52777;BME280;38656;54.260;20.822;2023-05-19T03:48:29;102365.44;;;18.06;74.81
52777;BME280;38656;54.260;20.822;2023-05-19T03:50:55;102369.38;;;17.90;73.48
52777;BME280;38656;54.260;20.822;2023-05-19T03:53:21;102372.75;;;17.36;75.18
52777;BME280;38656;54.260;20.822;2023-05-19T03:55:47;102364.38;;;18.08;72.75
52777;BME280;38656;54.260;20.822;2023-05-19T03:58:14;102365.09;;;17.76;73.03
52777;BME280;38656;54.260;20.822;2023-05-19T04:00:41;102365.84;;;17.56;72.97
52777;BME280;38656;54.260;20.822;2023-05-19T04:03:07;102361.22;;;17.80;72.88
52777;BME280;38656;54.260;20.822;2023-05-19T04:05:33;102367.66;;;17.32;74.50
52777;BME280;38656;54.260;20.822;2023-05-19T04:08:00;102376.28;;;17.36;74.75
52777;BME280;38656;54.260;20.822;2023-05-19T04:10:26;102369.72;;;17.85;72.37
52777;BME280;38656;54.260;20.822;2023-05-19T04:12:52;102375.28;;;17.82;72.38
52777;BME280;38656;54.260;20.822;2023-05-19T04:15:18;102372.50;;;17.61;72.92
52777;BME280;38656;54.260;20.822;2023-05-19T04:17:44;102373.63;;;17.59;73.34
52777;BME280;38656;54.260;20.822;2023-05-19T04:20:11;102372.00;;;18.45;70.73
52777;BME280;38656;54.260;20.822;2023-05-19T04:22:37;102366.66;;;19.20;66.86
52777;BME280;38656;54.260;20.822;2023-05-19T04:25:03;102363.47;;;19.05;66.75
52777;BME280;38656;54.260;20.822;2023-05-19T04:27:30;102367.66;;;18.98;64.98
52777;BME280;38656;54.260;20.822;2023-05-19T04:29:57;102368.34;;;19.00;65.20
52777;BME280;38656;54.260;20.822;2023-05-19T04:32:23;102362.97;;;19.21;63.97
52777;BME280;38656;54.260;20.822;2023-05-19T04:34:49;102359.34;;;19.01;64.36
52777;BME280;38656;54.260;20.822;2023-05-19T04:37:15;102365.19;;;19.37;63.65
52777;BME280;38656;54.260;20.822;2023-05-19T04:39:42;102360.53;;;19.39;64.04
52777;BME280;38656;54.260;20.822;2023-05-19T04:42:10;102359.59;;;19.50;63.60
52777;BME280;38656;54.260;20.822;2023-05-19T04:44:37;102360.03;;;19.55;63.67
52777;BME280;38656;54.260;20.822;2023-05-19T04:47:06;102365.56;;;19.94;62.22
52777;BME280;38656;54.260;20.822;2023-05-19T04:49:36;102361.19;;;20.03;61.70
52777;BME280;38656;54.260;20.822;2023-05-19T04:52:09;102361.84;;;19.14;63.08
52777;BME280;38656;54.260;20.822;2023-05-19T04:54:36;102363.75;;;19.63;62.89
52777;BME280;38656;54.260;20.822;2023-05-19T04:57:03;102362.09;;;19.72;62.90
52777;BME280;38656;54.260;20.822;2023-05-19T04:59:30;102367.06;;;19.46;63.12
52777;BME280;38656;54.260;20.822;2023-05-19T05:01:57;102374.53;;;18.79;63.79
52777;BME280;38656;54.260;20.822;2023-05-19T05:04:23;102374.75;;;19.60;63.42
52777;BME280;38656;54.260;20.822;2023-05-19T05:06:49;102376.06;;;19.45;63.15
52777;BME280;38656;54.260;20.822;2023-05-19T05:09:16;102374.56;;;19.21;63.84
52777;BME280;38656;54.260;20.822;2023-05-19T05:11:43;102376.78;;;19.78;62.36
52777;BME280;38656;54.260;20.822;2023-05-19T05:14:10;102375.09;;;19.77;62.58
52777;BME280;38656;54.260;20.822;2023-05-19T05:16:36;102379.94;;;19.83;62.24
52777;BME280;38656;54.260;20.822;2023-05-19T05:19:03;102376.09;;;19.86;62.55
52777;BME280;38656;54.260;20.822;2023-05-19T05:21:29;102384.09;;;19.66;62.03
52777;BME280;38656;54.260;20.822;2023-05-19T05:23:57;102382.59;;;19.52;63.80
52777;BME280;38656;54.260;20.822;2023-05-19T05:26:27;102379.50;;;19.57;63.71
52777;BME280;38656;54.260;20.822;2023-05-19T05:28:54;102375.91;;;19.68;63.83
52777;BME280;38656;54.260;20.822;2023-05-19T05:31:21;102382.16;;;19.78;65.46
52777;BME280;38656;54.260;20.822;2023-05-19T05:33:47;102368.00;;;19.76;64.37
52777;BME280;38656;54.260;20.822;2023-05-19T05:36:14;102372.25;;;19.38;64.14
52777;BME280;38656;54.260;20.822;2023-05-19T05:38:40;102373.13;;;19.79;63.87
52777;BME280;38656;54.260;20.822;2023-05-19T05:43:36;102375.94;;;19.77;63.93
52777;BME280;38656;54.260;20.822;2023-05-19T05:46:03;102378.03;;;19.74;63.87
52777;BME280;38656;54.260;20.822;2023-05-19T05:48:29;102382.44;;;19.44;64.62
52777;BME280;38656;54.260;20.822;2023-05-19T05:50:56;102384.75;;;19.89;64.14
52777;BME280;38656;54.260;20.822;2023-05-19T05:53:24;102391.25;;;19.66;64.80
52777;BME280;38656;54.260;20.822;2023-05-19T05:55:52;102396.00;;;19.83;64.87
52777;BME280;38656;54.260;20.822;2023-05-19T05:58:18;102383.41;;;19.43;65.66
52777;BME280;38656;54.260;20.822;2023-05-19T06:00:46;102387.84;;;19.94;63.74
52777;BME280;38656;54.260;20.822;2023-05-19T06:03:14;102384.53;;;20.51;62.00
52777;BME280;38656;54.260;20.822;2023-05-19T06:05:41;102396.09;;;21.20;59.35
52777;BME280;38656;54.260;20.822;2023-05-19T06:08:07;102393.28;;;20.53;59.05
52777;BME280;38656;54.260;20.822;2023-05-19T06:10:34;102391.84;;;20.10;59.45
52777;BME280;38656;54.260;20.822;2023-05-19T06:13:01;102393.47;;;19.91;60.99
52777;BME280;38656;54.260;20.822;2023-05-19T06:15:27;102400.00;;;19.89;61.86
52777;BME280;38656;54.260;20.822;2023-05-19T06:17:53;102398.97;;;20.60;60.62
52777;BME280;38656;54.260;20.822;2023-05-19T06:20:20;102398.38;;;20.95;58.49
52777;BME280;38656;54.260;20.822;2023-05-19T06:22:46;102397.41;;;21.44;58.50
52777;BME280;38656;54.260;20.822;2023-05-19T06:25:12;102398.28;;;21.34;56.89
52777;BME280;38656;54.260;20.822;2023-05-19T06:27:38;102396.56;;;21.43;58.28
52777;BME280;38656;54.260;20.822;2023-05-19T06:30:05;102408.94;;;21.73;56.90
52777;BME280;38656;54.260;20.822;2023-05-19T06:32:33;102397.66;;;21.60;56.83
52777;BME280;38656;54.260;20.822;2023-05-19T06:34:59;102393.22;;;21.31;57.18
52777;BME280;38656;54.260;20.822;2023-05-19T06:37:25;102401.47;;;21.67;57.59
52777;BME280;38656;54.260;20.822;2023-05-19T06:39:53;102408.09;;;21.73;56.24
52777;BME280;38656;54.260;20.822;2023-05-19T06:42:22;102396.72;;;20.75;60.56
52777;BME280;38656;54.260;20.822;2023-05-19T06:44:50;102403.75;;;20.95;59.52
52777;BME280;38656;54.260;20.822;2023-05-19T06:47:17;102403.66;;;20.67;57.71
52777;BME280;38656;54.260;20.822;2023-05-19T06:49:46;102405.97;;;21.29;56.34
52777;BME280;38656;54.260;20.822;2023-05-19T06:52:20;102399.38;;;22.07;56.54
52777;BME280;38656;54.260;20.822;2023-05-19T06:54:47;102401.69;;;22.02;55.64
52777;BME280;38656;54.260;20.822;2023-05-19T06:57:13;102403.78;;;22.36;54.84
52777;BME280;38656;54.260;20.822;2023-05-19T06:59:40;102404.00;;;22.42;55.54
52777;BME280;38656;54.260;20.822;2023-05-19T07:02:08;102402.56;;;22.48;56.01
52777;BME280;38656;54.260;20.822;2023-05-19T07:04:35;102407.00;;;22.39;55.51
52777;BME280;38656;54.260;20.822;2023-05-19T07:07:01;102408.41;;;22.16;54.92
52777;BME280;38656;54.260;20.822;2023-05-19T07:09:27;102398.94;;;21.94;56.44
52777;BME280;38656;54.260;20.822;2023-05-19T07:11:54;102401.41;;;21.39;55.54
52777;BME280;38656;54.260;20.822;2023-05-19T07:14:21;102409.31;;;21.51;55.50
52777;BME280;38656;54.260;20.822;2023-05-19T07:16:47;102410.03;;;21.81;54.35
52777;BME280;38656;54.260;20.822;2023-05-19T07:19:13;102402.47;;;22.58;52.54
52777;BME280;38656;54.260;20.822;2023-05-19T07:21:40;102408.47;;;22.52;51.09
52777;BME280;38656;54.260;20.822;2023-05-19T07:24:07;102407.19;;;22.28;50.55
52777;BME280;38656;54.260;20.822;2023-05-19T07:26:33;102407.53;;;22.61;51.22
52777;BME280;38656;54.260;20.822;2023-05-19T07:28:59;102402.91;;;22.71;50.19
52777;BME280;38656;54.260;20.822;2023-05-19T07:31:25;102410.00;;;21.90;50.75
52777;BME280;38656;54.260;20.822;2023-05-19T07:33:52;102407.69;;;22.41;51.33
52777;BME280;38656;54.260;20.822;2023-05-19T07:36:18;102409.44;;;23.31;49.74
52777;BME280;38656;54.260;20.822;2023-05-19T07:38:45;102405.72;;;23.06;49.26
52777;BME280;38656;54.260;20.822;2023-05-19T07:41:11;102409.09;;;22.45;51.17
52777;BME280;38656;54.260;20.822;2023-05-19T07:43:38;102408.22;;;22.81;49.76
52777;BME280;38656;54.260;20.822;2023-05-19T07:46:04;102414.50;;;21.90;53.43
52777;BME280;38656;54.260;20.822;2023-05-19T07:48:30;102416.69;;;22.32;51.34
52777;BME280;38656;54.260;20.822;2023-05-19T07:50:56;102413.19;;;22.22;50.21
52777;BME280;38656;54.260;20.822;2023-05-19T07:53:23;102417.25;;;22.54;48.84
52777;BME280;38656;54.260;20.822;2023-05-19T07:55:49;102412.44;;;22.84;49.00
52777;BME280;38656;54.260;20.822;2023-05-19T07:58:15;102411.09;;;22.43;48.28
52777;BME280;38656;54.260;20.822;2023-05-19T08:00:42;102412.41;;;23.20;49.73
52777;BME280;38656;54.260;20.822;2023-05-19T08:03:09;102414.56;;;22.72;48.76
52777;BME280;38656;54.260;20.822;2023-05-19T08:05:35;102412.94;;;23.23;49.79
52777;BME280;38656;54.260;20.822;2023-05-19T08:08:02;102414.16;;;23.63;48.03
52777;BME280;38656;54.260;20.822;2023-05-19T08:10:28;102414.47;;;23.87;46.22
52777;BME280;38656;54.260;20.822;2023-05-19T08:12:55;102405.78;;;24.17;46.59
52777;BME280;38656;54.260;20.822;2023-05-19T08:15:21;102410.44;;;22.86;47.56
52777;BME280;38656;54.260;20.822;2023-05-19T08:17:47;102411.72;;;23.00;47.24
52777;BME280;38656;54.260;20.822;2023-05-19T08:20:13;102408.19;;;22.99;48.04
52777;BME280;38656;54.260;20.822;2023-05-19T08:22:39;102405.28;;;22.74;47.86
52777;BME280;38656;54.260;20.822;2023-05-19T08:25:06;102412.97;;;23.05;47.76
52777;BME280;38656;54.260;20.822;2023-05-19T08:27:32;102410.28;;;23.66;47.90
52777;BME280;38656;54.260;20.822;2023-05-19T08:29:58;102407.16;;;24.46;46.70
52777;BME280;38656;54.260;20.822;2023-05-19T08:32:25;102410.47;;;24.07;45.88
52777;BME280;38656;54.260;20.822;2023-05-19T08:34:51;102408.88;;;24.39;46.28
52777;BME280;38656;54.260;20.822;2023-05-19T08:37:17;102413.56;;;23.43;46.98
52777;BME280;38656;54.260;20.822;2023-05-19T08:39:43;102413.72;;;23.76;48.12
52777;BME280;38656;54.260;20.822;2023-05-19T08:42:09;102411.03;;;23.84;49.64
52777;BME280;38656;54.260;20.822;2023-05-19T08:44:37;102413.22;;;22.58;50.90
52777;BME280;38656;54.260;20.822;2023-05-19T08:47:05;102405.00;;;23.91;44.72
52777;BME280;38656;54.260;20.822;2023-05-19T08:49:43;102414.13;;;23.90;45.82
52777;BME280;38656;54.260;20.822;2023-05-19T08:54:57;102401.47;;;23.56;44.41
52777;BME280;38656;54.260;20.822;2023-05-19T08:57:25;102399.69;;;24.24;44.51
52777;BME280;38656;54.260;20.822;2023-05-19T08:59:53;102409.13;;;23.68;41.76
52777;BME280;38656;54.260;20.822;2023-05-19T09:02:21;102408.47;;;24.09;41.82
52777;BME280;38656;54.260;20.822;2023-05-19T09:04:48;102401.56;;;23.72;43.11
52777;BME280;38656;54.260;20.822;2023-05-19T09:07:15;102406.19;;;23.54;43.48
52777;BME280;38656;54.260;20.822;2023-05-19T09:09:41;102405.44;;;23.35;42.95
52777;BME280;38656;54.260;20.822;2023-05-19T09:12:13;102407.28;;;23.69;42.22
52777;BME280;38656;54.260;20.822;2023-05-19T09:14:39;102406.38;;;23.95;42.34
52777;BME280;38656;54.260;20.822;2023-05-19T09:17:06;102407.38;;;23.85;43.80
52777;BME280;38656;54.260;20.822;2023-05-19T09:19:32;102399.56;;;23.74;41.75
52777;BME280;38656;54.260;20.822;2023-05-19T09:21:59;102402.91;;;23.33;44.72
52777;BME280;38656;54.260;20.822;2023-05-19T09:24:26;102414.41;;;22.73;48.11
52777;BME280;38656;54.260;20.822;2023-05-19T09:26:55;102412.81;;;23.59;41.57
52777;BME280;38656;54.260;20.822;2023-05-19T09:29:24;102406.94;;;23.72;43.37
52777;BME280;38656;54.260;20.822;2023-05-19T09:31:53;102408.25;;;23.60;42.75
52777;BME280;38656;54.260;20.822;2023-05-19T09:34:22;102408.75;;;22.85;42.28
52777;BME280;38656;54.260;20.822;2023-05-19T09:36:50;102404.72;;;24.02;41.50
52777;BME280;38656;54.260;20.822;2023-05-19T09:39:20;102406.06;;;23.98;42.02
52777;BME280;38656;54.260;20.822;2023-05-19T09:41:49;102399.91;;;23.45;42.44
52777;BME280;38656;54.260;20.822;2023-05-19T09:44:23;102413.44;;;23.88;41.61
52777;BME280;38656;54.260;20.822;2023-05-19T09:46:54;102403.66;;;24.79;40.40
52777;BME280;38656;54.260;20.822;2023-05-19T09:49:26;102403.78;;;22.72;42.77
52777;BME280;38656;54.260;20.822;2023-05-19T09:52:01;102398.84;;;23.64;42.19
52777;BME280;38656;54.260;20.822;2023-05-19T09:54:29;102398.31;;;24.03;41.14
52777;BME280;38656;54.260;20.822;2023-05-19T09:59:24;102396.88;;;24.50;42.14
52777;BME280;38656;54.260;20.822;2023-05-19T10:01:54;102395.97;;;23.31;43.24
52777;BME280;38656;54.260;20.822;2023-05-19T10:04:23;102401.75;;;24.21;42.35
52777;BME280;38656;54.260;20.822;2023-05-19T10:06:49;102401.34;;;22.15;45.75
52777;BME280;38656;54.260;20.822;2023-05-19T10:09:26;102392.16;;;23.84;44.00
52777;BME280;38656;54.260;20.822;2023-05-19T10:11:54;102404.56;;;23.61;43.50
52777;BME280;38656;54.260;20.822;2023-05-19T10:14:28;102394.66;;;23.35;42.14
52777;BME280;38656;54.260;20.822;2023-05-19T10:16:56;102403.13;;;21.21;49.19
52777;BME280;38656;54.260;20.822;2023-05-19T10:19:24;102396.72;;;20.94;49.61
52777;BME280;38656;54.260;20.822;2023-05-19T10:21:51;102401.94;;;22.08;48.26
52777;BME280;38656;54.260;20.822;2023-05-19T10:24:18;102402.34;;;23.30;45.87
52777;BME280;38656;54.260;20.822;2023-05-19T10:27:04;102407.72;;;21.11;48.79
52777;BME280;38656;54.260;20.822;2023-05-19T10:29:36;102399.41;;;23.41;47.95
52777;BME280;38656;54.260;20.822;2023-05-19T10:32:09;102397.78;;;24.59;45.07
52777;BME280;38656;54.260;20.822;2023-05-19T10:43:34;102414.16;;;20.20;61.88
52777;BME280;38656;54.260;20.822;2023-05-19T10:46:04;102404.22;;;19.91;66.60
52777;BME280;38656;54.260;20.822;2023-05-19T10:48:34;102406.06;;;20.71;66.41
52777;BME280;38656;54.260;20.822;2023-05-19T10:51:03;102400.03;;;22.19;60.41
52777;BME280;38656;54.260;20.822;2023-05-19T10:53:34;102405.66;;;19.43;65.64
52777;BME280;38656;54.260;20.822;2023-05-19T10:56:02;102407.06;;;21.36;63.99
52777;BME280;38656;54.260;20.822;2023-05-19T11:01:15;102404.91;;;19.62;68.76
52777;BME280;38656;54.260;20.822;2023-05-19T11:08:46;102402.44;;;23.46;54.54
52777;BME280;38656;54.260;20.822;2023-05-19T11:11:17;102407.56;;;21.69;57.38
52777;BME280;38656;54.260;20.822;2023-05-19T11:13:47;102406.88;;;21.00;62.62
52777;BME280;38656;54.260;20.822;2023-05-19T11:16:18;102416.16;;;22.47;60.21
52777;BME280;38656;54.260;20.822;2023-05-19T11:18:49;102416.09;;;21.55;63.13
52777;BME280;38656;54.260;20.822;2023-05-19T11:21:16;102410.00;;;22.36;58.48
52777;BME280;38656;54.260;20.822;2023-05-19T11:23:44;102412.16;;;20.03;65.38
52777;BME280;38656;54.260;20.822;2023-05-19T11:26:10;102407.84;;;20.99;62.08
52777;BME280;38656;54.260;20.822;2023-05-19T11:28:38;102413.91;;;21.01;62.67
52777;BME280;38656;54.260;20.822;2023-05-19T11:31:04;102411.94;;;20.45;64.40
52777;BME280;38656;54.260;20.822;2023-05-19T11:33:33;102417.31;;;19.33;67.07
52777;BME280;38656;54.260;20.822;2023-05-19T11:36:00;102416.13;;;23.19;56.71
52777;BME280;38656;54.260;20.822;2023-05-19T11:38:27;102416.59;;;23.14;56.08
52777;BME280;38656;54.260;20.822;2023-05-19T11:40:55;102418.84;;;20.38;64.49
52777;BME280;38656;54.260;20.822;2023-05-19T11:43:25;102426.06;;;22.00;63.62
52777;BME280;38656;54.260;20.822;2023-05-19T11:45:53;102416.66;;;21.86;63.36
52777;BME280;38656;54.260;20.822;2023-05-19T11:48:22;102426.22;;;22.80;56.81
52777;BME280;38656;54.260;20.822;2023-05-19T11:50:49;102422.47;;;22.73;56.62
52777;BME280;38656;54.260;20.822;2023-05-19T11:53:16;102432.66;;;23.06;56.15
52777;BME280;38656;54.260;20.822;2023-05-19T11:55:44;102424.66;;;23.40;54.86
52777;BME280;38656;54.260;20.822;2023-05-19T11:58:11;102427.19;;;20.34;64.76
52777;BME280;38656;54.260;20.822;2023-05-19T12:00:39;102430.72;;;22.36;59.34
52777;BME280;38656;54.260;20.822;2023-05-19T12:03:06;102431.75;;;21.69;61.03
52777;BME280;38656;54.260;20.822;2023-05-19T12:05:35;102430.25;;;22.40;60.60
52777;BME280;38656;54.260;20.822;2023-05-19T12:08:02;102428.69;;;21.92;63.63
52777;BME280;38656;54.260;20.822;2023-05-19T12:10:29;102430.44;;;20.58;67.55
52777;BME280;38656;54.260;20.822;2023-05-19T12:12:56;102435.53;;;22.32;65.55
52777;BME280;38656;54.260;20.822;2023-05-19T12:15:24;102433.75;;;20.11;70.63
52777;BME280;38656;54.260;20.822;2023-05-19T12:17:58;102431.06;;;20.01;81.25
52777;BME280;38656;54.260;20.822;2023-05-19T12:20:26;102430.66;;;20.15;77.00
52777;BME280;38656;54.260;20.822;2023-05-19T12:22:54;102440.47;;;19.13;81.72
52777;BME280;38656;54.260;20.822;2023-05-19T12:25:21;102437.44;;;18.85;85.72
52777;BME280;38656;54.260;20.822;2023-05-19T12:27:48;102437.63;;;21.26;80.47
52777;BME280;38656;54.260;20.822;2023-05-19T12:30:15;102431.97;;;20.21;82.36
52777;BME280;38656;54.260;20.822;2023-05-19T12:32:42;102427.53;;;20.90;76.46
52777;BME280;38656;54.260;20.822;2023-05-19T12:35:09;102434.34;;;22.17;74.64
52777;BME280;38656;54.260;20.822;2023-05-19T12:37:39;102432.47;;;20.05;82.88
52777;BME280;38656;54.260;20.822;2023-05-19T12:40:07;102428.38;;;20.01;85.16
52777;BME280;38656;54.260;20.822;2023-05-19T12:42:34;102434.56;;;20.52;81.57
52777;BME280;38656;54.260;20.822;2023-05-19T12:45:02;102424.56;;;20.04;82.03
52777;BME280;38656;54.260;20.822;2023-05-19T12:47:30;102427.25;;;20.74;84.26
52777;BME280;38656;54.260;20.822;2023-05-19T12:50:05;102420.72;;;23.08;73.02
52777;BME280;38656;54.260;20.822;2023-05-19T12:52:42;102420.31;;;23.47;67.98
52777;BME280;38656;54.260;20.822;2023-05-19T12:55:09;102416.25;;;23.78;65.29
52777;BME280;38656;54.260;20.822;2023-05-19T12:57:43;102420.38;;;23.90;62.48
52777;BME280;38656;54.260;20.822;2023-05-19T13:00:17;102422.97;;;24.08;59.18
52777;BME280;38656;54.260;20.822;2023-05-19T13:05:25;102424.34;;;24.20;59.64
52777;BME280;38656;54.260;20.822;2023-05-19T13:08:10;102417.63;;;24.41;55.36
52777;BME280;38656;54.260;20.822;2023-05-19T13:10:39;102431.13;;;23.03;60.16
52777;BME280;38656;54.260;20.822;2023-05-19T13:13:06;102420.34;;;21.58;69.29
52777;BME280;38656;54.260;20.822;2023-05-19T13:15:33;102422.19;;;22.31;70.83
52777;BME280;38656;54.260;20.822;2023-05-19T13:18:01;102421.81;;;23.15;67.09
52777;BME280;38656;54.260;20.822;2023-05-19T13:20:28;102419.28;;;23.40;70.85
52777;BME280;38656;54.260;20.822;2023-05-19T13:22:57;102406.53;;;23.06;68.65
52777;BME280;38656;54.260;20.822;2023-05-19T13:25:24;102408.91;;;23.54;68.56
52777;BME280;38656;54.260;20.822;2023-05-19T13:27:51;102410.41;;;23.22;66.97